sensor_id;sensor_type;location;lat;lon;timestamp;P1;durP1;ratioP1;P2;durP2;ratioP2
21569;SDS011;57598;50.888;4.746;2022-09-09T00:02:12;59.90;;;53.40;;
21569;SDS011;57598;50.888;4.746;2022-09-09T00:04:46;60.33;;;53.83;;
21569;SDS011;57598;50.888;4.746;2022-09-09T00:07:21;60.47;;;53.97;;
21569;SDS011;57598;50.888;4.746;2022-09-09T00:09:57;57.55;;;51.30;;
21569;SDS011;57598;50.888;4.746;2022-09-09T00:12:34;59.25;;;52.85;;
21569;SDS011;57598;50.888;4.746;2022-09-09T00:15:11;55.28;;;49.17;;
21569;SDS011;57598;50.888;4.746;2022-09-09T00:17:43;58.60;;;52.28;;
21569;SDS011;57598;50.888;4.746;2022-09-09T00:20:20;58.53;;;52.22;;
21569;SDS011;57598;50.888;4.746;2022-09-09T00:22:55;57.28;;;51.00;;
21569;SDS011;57598;50.888;4.746;2022-09-09T00:25:32;59.75;;;52.95;;
21569;SDS011;57598;50.888;4.746;2022-09-09T00:28:11;58.53;;;52.13;;
21569;SDS011;57598;50.888;4.746;2022-09-09T00:30:44;59.17;;;52.78;;
21569;SDS011;57598;50.888;4.746;2022-09-09T00:33:15;59.83;;;53.43;;
21569;SDS011;57598;50.888;4.746;2022-09-09T00:35:44;60.80;;;54.30;;
21569;SDS011;57598;50.888;4.746;2022-09-09T00:38:14;59.08;;;52.67;;
21569;SDS011;57598;50.888;4.746;2022-09-09T00:40:45;59.13;;;52.83;;
21569;SDS011;57598;50.888;4.746;2022-09-09T00:43:23;57.78;;;51.50;;
21569;SDS011;57598;50.888;4.746;2022-09-09T00:48:50;59.03;;;52.67;;
21569;SDS011;57598;50.888;4.746;2022-09-09T00:51:25;57.60;;;51.35;;
21569;SDS011;57598;50.888;4.746;2022-09-09T00:54:15;56.88;;;50.63;;
21569;SDS011;57598;50.888;4.746;2022-09-09T00:56:56;58.67;;;52.28;;
21569;SDS011;57598;50.888;4.746;2022-09-09T00:59:34;58.17;;;51.78;;
21569;SDS011;57598;50.888;4.746;2022-09-09T01:02:13;56.83;;;50.63;;
21569;SDS011;57598;50.888;4.746;2022-09-09T01:04:48;56.83;;;50.63;;
21569;SDS011;57598;50.888;4.746;2022-09-09T01:07:16;57.15;;;50.95;;
21569;SDS011;57598;50.888;4.746;2022-09-09T01:09:51;55.50;;;49.55;;
21569;SDS011;57598;50.888;4.746;2022-09-09T01:12:26;56.80;;;50.70;;
21569;SDS011;57598;50.888;4.746;2022-09-09T01:15:01;56.55;;;50.35;;
21569;SDS011;57598;50.888;4.746;2022-09-09T01:17:39;56.00;;;49.85;;
21569;SDS011;57598;50.888;4.746;2022-09-09T01:20:15;57.95;;;51.40;;
21569;SDS011;57598;50.888;4.746;2022-09-09T01:22:47;58.40;;;52.15;;
21569;SDS011;57598;50.888;4.746;2022-09-09T01:25:28;56.70;;;50.60;;
21569;SDS011;57598;50.888;4.746;2022-09-09T01:28:01;58.15;;;51.85;;
21569;SDS011;57598;50.888;4.746;2022-09-09T01:30:37;58.60;;;52.33;;
21569;SDS011;57598;50.888;4.746;2022-09-09T01:33:05;58.30;;;52.00;;
21569;SDS011;57598;50.888;4.746;2022-09-09T01:35:37;60.50;;;54.00;;
21569;SDS011;57598;50.888;4.746;2022-09-09T01:38:12;56.75;;;50.55;;
21569;SDS011;57598;50.888;4.746;2022-09-09T01:40:40;56.97;;;50.67;;
21569;SDS011;57598;50.888;4.746;2022-09-09T01:43:09;58.70;;;51.38;;
21569;SDS011;57598;50.888;4.746;2022-09-09T01:45:36;59.58;;;53.08;;
21569;SDS011;57598;50.888;4.746;2022-09-09T01:48:05;58.05;;;51.75;;
21569;SDS011;57598;50.888;4.746;2022-09-09T01:50:32;58.60;;;52.10;;
21569;SDS011;57598;50.888;4.746;2022-09-09T01:52:59;58.33;;;50.70;;
21569;SDS011;57598;50.888;4.746;2022-09-09T01:55:29;57.42;;;51.22;;
21569;SDS011;57598;50.888;4.746;2022-09-09T01:58:01;60.17;;;53.78;;
21569;SDS011;57598;50.888;4.746;2022-09-09T02:00:39;58.10;;;51.90;;
21569;SDS011;57598;50.888;4.746;2022-09-09T02:03:13;58.00;;;51.80;;
21569;SDS011;57598;50.888;4.746;2022-09-09T02:05:48;60.17;;;53.85;;
21569;SDS011;57598;50.888;4.746;2022-09-09T02:08:20;57.22;;;51.03;;
21569;SDS011;57598;50.888;4.746;2022-09-09T02:10:53;58.60;;;51.65;;
21569;SDS011;57598;50.888;4.746;2022-09-09T02:13:27;59.05;;;52.70;;
21569;SDS011;57598;50.888;4.746;2022-09-09T02:16:00;57.05;;;50.83;;
21569;SDS011;57598;50.888;4.746;2022-09-09T02:18:32;60.28;;;53.88;;
21569;SDS011;57598;50.888;4.746;2022-09-09T02:21:04;57.28;;;50.95;;
21569;SDS011;57598;50.888;4.746;2022-09-09T02:23:33;57.33;;;50.78;;
21569;SDS011;57598;50.888;4.746;2022-09-09T02:28:34;57.95;;;51.55;;
21569;SDS011;57598;50.888;4.746;2022-09-09T02:31:03;56.72;;;50.53;;
21569;SDS011;57598;50.888;4.746;2022-09-09T02:33:33;58.50;;;52.10;;
21569;SDS011;57598;50.888;4.746;2022-09-09T02:38:34;57.30;;;51.10;;
21569;SDS011;57598;50.888;4.746;2022-09-09T02:41:04;58.63;;;52.33;;
21569;SDS011;57598;50.888;4.746;2022-09-09T02:43:33;58.67;;;52.38;;
21569;SDS011;57598;50.888;4.746;2022-09-09T02:46:03;57.80;;;51.53;;
21569;SDS011;57598;50.888;4.746;2022-09-09T02:48:43;56.70;;;50.53;;
21569;SDS011;57598;50.888;4.746;2022-09-09T02:51:22;59.78;;;53.38;;
21569;SDS011;57598;50.888;4.746;2022-09-09T02:53:54;59.90;;;53.50;;
21569;SDS011;57598;50.888;4.746;2022-09-09T02:56:30;58.20;;;51.90;;
21569;SDS011;57598;50.888;4.746;2022-09-09T02:59:06;58.03;;;51.25;;
21569;SDS011;57598;50.888;4.746;2022-09-09T03:01:33;55.63;;;49.63;;
21569;SDS011;57598;50.888;4.746;2022-09-09T03:04:01;58.88;;;52.60;;
21569;SDS011;57598;50.888;4.746;2022-09-09T03:06:30;57.60;;;51.40;;
21569;SDS011;57598;50.888;4.746;2022-09-09T03:08:57;57.53;;;51.33;;
21569;SDS011;57598;50.888;4.746;2022-09-09T03:11:26;56.05;;;50.05;;
21569;SDS011;57598;50.888;4.746;2022-09-09T03:13:53;57.33;;;51.22;;
21569;SDS011;57598;50.888;4.746;2022-09-09T03:16:22;59.08;;;52.83;;
21569;SDS011;57598;50.888;4.746;2022-09-09T03:18:49;58.63;;;52.55;;
21569;SDS011;57598;50.888;4.746;2022-09-09T03:21:17;57.15;;;51.15;;
21569;SDS011;57598;50.888;4.746;2022-09-09T03:23:44;56.45;;;50.45;;
21569;SDS011;57598;50.888;4.746;2022-09-09T03:26:11;58.97;;;52.78;;
21569;SDS011;57598;50.888;4.746;2022-09-09T03:28:40;59.95;;;53.65;;
21569;SDS011;57598;50.888;4.746;2022-09-09T03:31:07;57.05;;;51.03;;
21569;SDS011;57598;50.888;4.746;2022-09-09T03:33:36;56.03;;;50.03;;
21569;SDS011;57598;50.888;4.746;2022-09-09T03:36:04;55.65;;;49.65;;
21569;SDS011;57598;50.888;4.746;2022-09-09T03:38:32;56.50;;;50.50;;
21569;SDS011;57598;50.888;4.746;2022-09-09T03:40:59;55.95;;;49.85;;
21569;SDS011;57598;50.888;4.746;2022-09-09T03:43:28;54.72;;;48.92;;
21569;SDS011;57598;50.888;4.746;2022-09-09T03:45:55;53.85;;;48.25;;
21569;SDS011;57598;50.888;4.746;2022-09-09T03:48:23;54.72;;;49.13;;
21569;SDS011;57598;50.888;4.746;2022-09-09T03:50:52;54.20;;;48.60;;
21569;SDS011;57598;50.888;4.746;2022-09-09T03:53:21;56.60;;;50.90;;
21569;SDS011;57598;50.888;4.746;2022-09-09T03:55:50;55.28;;;49.65;;
21569;SDS011;57598;50.888;4.746;2022-09-09T03:58:20;56.90;;;51.00;;
21569;SDS011;57598;50.888;4.746;2022-09-09T04:00:58;56.75;;;50.75;;
21569;SDS011;57598;50.888;4.746;2022-09-09T04:03:26;55.15;;;49.45;;
21569;SDS011;57598;50.888;4.746;2022-09-09T04:05:56;53.90;;;48.30;;
21569;SDS011;57598;50.888;4.746;2022-09-09T04:08:25;54.65;;;49.05;;
21569;SDS011;57598;50.888;4.746;2022-09-09T04:10:52;54.22;;;48.65;;
21569;SDS011;57598;50.888;4.746;2022-09-09T04:13:24;53.03;;;47.53;;
21569;SDS011;57598;50.888;4.746;2022-09-09T04:15:52;53.85;;;48.15;;
21569;SDS011;57598;50.888;4.746;2022-09-09T04:18:20;55.00;;;49.20;;
21569;SDS011;57598;50.888;4.746;2022-09-09T04:20:47;52.92;;;47.33;;
21569;SDS011;57598;50.888;4.746;2022-09-09T04:23:16;52.60;;;47.05;;
21569;SDS011;57598;50.888;4.746;2022-09-09T04:25:45;52.17;;;46.67;;
21569;SDS011;57598;50.888;4.746;2022-09-09T04:28:13;51.38;;;45.88;;
21569;SDS011;57598;50.888;4.746;2022-09-09T04:30:40;55.20;;;48.17;;
21569;SDS011;57598;50.888;4.746;2022-09-09T04:33:07;52.80;;;47.35;;
21569;SDS011;57598;50.888;4.746;2022-09-09T04:35:35;51.58;;;46.17;;
21569;SDS011;57598;50.888;4.746;2022-09-09T04:38:03;52.72;;;47.33;;
21569;SDS011;57598;50.888;4.746;2022-09-09T04:40:33;52.83;;;47.42;;
21569;SDS011;57598;50.888;4.746;2022-09-09T04:43:01;51.83;;;46.42;;
21569;SDS011;57598;50.888;4.746;2022-09-09T04:45:29;55.35;;;49.75;;
21569;SDS011;57598;50.888;4.746;2022-09-09T04:47:57;51.80;;;46.42;;
21569;SDS011;57598;50.888;4.746;2022-09-09T04:50:24;55.53;;;49.13;;
21569;SDS011;57598;50.888;4.746;2022-09-09T04:52:51;53.15;;;47.75;;
21569;SDS011;57598;50.888;4.746;2022-09-09T04:55:18;52.95;;;47.55;;
21569;SDS011;57598;50.888;4.746;2022-09-09T04:57:47;52.17;;;46.60;;
21569;SDS011;57598;50.888;4.746;2022-09-09T05:00:14;64.60;;;47.20;;
21569;SDS011;57598;50.888;4.746;2022-09-09T05:02:42;56.30;;;46.45;;
21569;SDS011;57598;50.888;4.746;2022-09-09T05:05:09;52.22;;;46.83;;
21569;SDS011;57598;50.888;4.746;2022-09-09T05:07:36;53.13;;;47.75;;
21569;SDS011;57598;50.888;4.746;2022-09-09T05:10:03;53.97;;;48.53;;
21569;SDS011;57598;50.888;4.746;2022-09-09T05:12:31;52.85;;;47.47;;
21569;SDS011;57598;50.888;4.746;2022-09-09T05:14:59;55.25;;;49.53;;
21569;SDS011;57598;50.888;4.746;2022-09-09T05:17:26;55.70;;;50.40;;
21569;SDS011;57598;50.888;4.746;2022-09-09T05:19:53;53.60;;;48.30;;
21569;SDS011;57598;50.888;4.746;2022-09-09T05:22:20;52.92;;;47.63;;
21569;SDS011;57598;50.888;4.746;2022-09-09T05:24:48;54.40;;;49.08;;
21569;SDS011;57598;50.888;4.746;2022-09-09T05:27:16;51.08;;;45.97;;
21569;SDS011;57598;50.888;4.746;2022-09-09T05:29:44;52.08;;;46.97;;
21569;SDS011;57598;50.888;4.746;2022-09-09T05:32:12;53.15;;;48.25;;
21569;SDS011;57598;50.888;4.746;2022-09-09T05:34:40;51.40;;;46.60;;
21569;SDS011;57598;50.888;4.746;2022-09-09T05:37:07;51.22;;;46.53;;
21569;SDS011;57598;50.888;4.746;2022-09-09T05:39:34;50.10;;;45.60;;
21569;SDS011;57598;50.888;4.746;2022-09-09T05:42:03;47.50;;;43.22;;
21569;SDS011;57598;50.888;4.746;2022-09-09T05:44:31;50.53;;;45.92;;
21569;SDS011;57598;50.888;4.746;2022-09-09T05:46:58;51.13;;;46.63;;
21569;SDS011;57598;50.888;4.746;2022-09-09T05:49:26;52.67;;;48.03;;
21569;SDS011;57598;50.888;4.746;2022-09-09T05:51:53;49.85;;;45.35;;
21569;SDS011;57598;50.888;4.746;2022-09-09T05:54:20;53.38;;;48.78;;
21569;SDS011;57598;50.888;4.746;2022-09-09T05:56:47;53.70;;;49.05;;
21569;SDS011;57598;50.888;4.746;2022-09-09T05:59:16;53.30;;;48.55;;
21569;SDS011;57598;50.888;4.746;2022-09-09T06:01:43;52.97;;;47.92;;
21569;SDS011;57598;50.888;4.746;2022-09-09T06:04:10;50.22;;;46.00;;
21569;SDS011;57598;50.888;4.746;2022-09-09T06:06:38;52.70;;;48.30;;
21569;SDS011;57598;50.888;4.746;2022-09-09T06:09:07;53.40;;;48.85;;
21569;SDS011;57598;50.888;4.746;2022-09-09T06:11:36;50.90;;;46.80;;
21569;SDS011;57598;50.888;4.746;2022-09-09T06:14:04;51.95;;;47.65;;
21569;SDS011;57598;50.888;4.746;2022-09-09T06:16:31;51.95;;;47.75;;
21569;SDS011;57598;50.888;4.746;2022-09-09T06:18:59;50.42;;;46.13;;
21569;SDS011;57598;50.888;4.746;2022-09-09T06:21:28;51.38;;;46.95;;
21569;SDS011;57598;50.888;4.746;2022-09-09T06:23:57;52.83;;;48.33;;
21569;SDS011;57598;50.888;4.746;2022-09-09T06:26:25;49.72;;;45.63;;
21569;SDS011;57598;50.888;4.746;2022-09-09T06:28:54;50.83;;;46.78;;
21569;SDS011;57598;50.888;4.746;2022-09-09T06:31:23;49.55;;;45.63;;
21569;SDS011;57598;50.888;4.746;2022-09-09T06:33:53;53.92;;;49.03;;
21569;SDS011;57598;50.888;4.746;2022-09-09T06:36:21;49.25;;;45.45;;
21569;SDS011;57598;50.888;4.746;2022-09-09T06:38:49;49.85;;;45.97;;
21569;SDS011;57598;50.888;4.746;2022-09-09T06:41:19;48.65;;;44.95;;
21569;SDS011;57598;50.888;4.746;2022-09-09T06:43:47;48.53;;;44.83;;
21569;SDS011;57598;50.888;4.746;2022-09-09T06:46:15;49.55;;;45.85;;
21569;SDS011;57598;50.888;4.746;2022-09-09T06:48:44;50.08;;;46.38;;
21569;SDS011;57598;50.888;4.746;2022-09-09T06:51:12;48.92;;;45.13;;
21569;SDS011;57598;50.888;4.746;2022-09-09T06:53:40;48.00;;;44.50;;
21569;SDS011;57598;50.888;4.746;2022-09-09T06:56:21;48.65;;;44.63;;
21569;SDS011;57598;50.888;4.746;2022-09-09T06:58:49;47.50;;;44.10;;
21569;SDS011;57598;50.888;4.746;2022-09-09T07:01:17;49.75;;;46.05;;
21569;SDS011;57598;50.888;4.746;2022-09-09T07:03:46;48.80;;;45.33;;
21569;SDS011;57598;50.888;4.746;2022-09-09T07:06:16;48.45;;;44.95;;
21569;SDS011;57598;50.888;4.746;2022-09-09T07:08:47;46.65;;;43.35;;
21569;SDS011;57598;50.888;4.746;2022-09-09T07:11:16;48.60;;;45.20;;
21569;SDS011;57598;50.888;4.746;2022-09-09T07:13:45;49.65;;;46.25;;
21569;SDS011;57598;50.888;4.746;2022-09-09T07:16:14;50.40;;;46.80;;
21569;SDS011;57598;50.888;4.746;2022-09-09T07:18:43;49.40;;;45.70;;
21569;SDS011;57598;50.888;4.746;2022-09-09T07:21:11;47.85;;;44.45;;
21569;SDS011;57598;50.888;4.746;2022-09-09T07:23:39;48.17;;;44.88;;
21569;SDS011;57598;50.888;4.746;2022-09-09T07:26:07;48.92;;;45.63;;
21569;SDS011;57598;50.888;4.746;2022-09-09T07:28:35;50.42;;;47.08;;
21569;SDS011;57598;50.888;4.746;2022-09-09T07:31:04;49.35;;;45.90;;
21569;SDS011;57598;50.888;4.746;2022-09-09T07:33:33;48.67;;;45.47;;
21569;SDS011;57598;50.888;4.746;2022-09-09T07:36:05;48.47;;;45.08;;
21569;SDS011;57598;50.888;4.746;2022-09-09T07:38:37;46.45;;;43.38;;
21569;SDS011;57598;50.888;4.746;2022-09-09T07:41:06;48.72;;;44.60;;
21569;SDS011;57598;50.888;4.746;2022-09-09T07:43:37;47.28;;;44.08;;
21569;SDS011;57598;50.888;4.746;2022-09-09T07:46:06;47.78;;;44.60;;
21569;SDS011;57598;50.888;4.746;2022-09-09T07:48:34;48.30;;;45.00;;
21569;SDS011;57598;50.888;4.746;2022-09-09T07:51:04;47.70;;;44.13;;
21569;SDS011;57598;50.888;4.746;2022-09-09T07:53:33;46.25;;;42.80;;
21569;SDS011;57598;50.888;4.746;2022-09-09T07:56:04;47.63;;;44.33;;
21569;SDS011;57598;50.888;4.746;2022-09-09T07:58:32;48.70;;;45.25;;
21569;SDS011;57598;50.888;4.746;2022-09-09T08:00:59;49.85;;;46.08;;
21569;SDS011;57598;50.888;4.746;2022-09-09T08:03:27;47.60;;;44.40;;
21569;SDS011;57598;50.888;4.746;2022-09-09T08:05:59;47.28;;;43.83;;
21569;SDS011;57598;50.888;4.746;2022-09-09T08:08:27;45.75;;;42.65;;
21569;SDS011;57598;50.888;4.746;2022-09-09T08:11:00;47.78;;;43.70;;
21569;SDS011;57598;50.888;4.746;2022-09-09T08:13:28;46.58;;;43.38;;
21569;SDS011;57598;50.888;4.746;2022-09-09T08:16:03;47.00;;;43.72;;
21569;SDS011;57598;50.888;4.746;2022-09-09T08:18:32;46.80;;;43.80;;
21569;SDS011;57598;50.888;4.746;2022-09-09T08:21:04;46.55;;;43.40;;
21569;SDS011;57598;50.888;4.746;2022-09-09T08:23:32;45.45;;;42.45;;
21569;SDS011;57598;50.888;4.746;2022-09-09T08:26:03;45.85;;;42.80;;
21569;SDS011;57598;50.888;4.746;2022-09-09T08:28:31;45.33;;;42.42;;
21569;SDS011;57598;50.888;4.746;2022-09-09T08:31:04;42.92;;;40.13;;
21569;SDS011;57598;50.888;4.746;2022-09-09T08:33:36;41.65;;;39.15;;
21569;SDS011;57598;50.888;4.746;2022-09-09T08:36:04;40.55;;;37.85;;
21569;SDS011;57598;50.888;4.746;2022-09-09T08:38:32;37.70;;;35.40;;
21569;SDS011;57598;50.888;4.746;2022-09-09T08:41:03;37.70;;;35.40;;
21569;SDS011;57598;50.888;4.746;2022-09-09T08:43:43;38.15;;;35.85;;
21569;SDS011;57598;50.888;4.746;2022-09-09T08:46:14;37.78;;;35.58;;
21569;SDS011;57598;50.888;4.746;2022-09-09T08:48:52;39.70;;;37.00;;
21569;SDS011;57598;50.888;4.746;2022-09-09T08:51:26;38.08;;;35.78;;
21569;SDS011;57598;50.888;4.746;2022-09-09T08:53:58;39.90;;;37.00;;
21569;SDS011;57598;50.888;4.746;2022-09-09T08:56:30;40.03;;;37.42;;
21569;SDS011;57598;50.888;4.746;2022-09-09T08:58:59;40.20;;;37.70;;
21569;SDS011;57598;50.888;4.746;2022-09-09T09:01:34;48.20;;;45.30;;
21569;SDS011;57598;50.888;4.746;2022-09-09T09:04:15;67.53;;;62.45;;
21569;SDS011;57598;50.888;4.746;2022-09-09T09:06:59;85.28;;;79.40;;
21569;SDS011;57598;50.888;4.746;2022-09-09T09:09:36;128.63;;;118.30;;
21569;SDS011;57598;50.888;4.746;2022-09-09T09:12:15;217.43;;;205.18;;
21569;SDS011;57598;50.888;4.746;2022-09-09T09:14:44;216.00;;;203.32;;
21569;SDS011;57598;50.888;4.746;2022-09-09T09:17:14;271.58;;;256.10;;
21569;SDS011;57598;50.888;4.746;2022-09-09T09:19:45;253.85;;;239.30;;
21569;SDS011;57598;50.888;4.746;2022-09-09T09:22:16;224.40;;;211.07;;
21569;SDS011;57598;50.888;4.746;2022-09-09T09:24:48;129.48;;;121.43;;
21569;SDS011;57598;50.888;4.746;2022-09-09T09:27:18;80.53;;;74.90;;
21569;SDS011;57598;50.888;4.746;2022-09-09T09:29:56;79.30;;;72.47;;
21569;SDS011;57598;50.888;4.746;2022-09-09T09:32:24;74.32;;;68.90;;
21569;SDS011;57598;50.888;4.746;2022-09-09T09:34:56;68.88;;;63.58;;
21569;SDS011;57598;50.888;4.746;2022-09-09T09:37:28;70.43;;;64.63;;
21569;SDS011;57598;50.888;4.746;2022-09-09T09:40:07;74.35;;;68.25;;
21569;SDS011;57598;50.888;4.746;2022-09-09T09:42:35;77.80;;;71.40;;
21569;SDS011;57598;50.888;4.746;2022-09-09T09:45:14;83.88;;;77.22;;
21569;SDS011;57598;50.888;4.746;2022-09-09T09:47:46;86.93;;;79.75;;
21569;SDS011;57598;50.888;4.746;2022-09-09T09:50:24;177.88;;;165.65;;
21569;SDS011;57598;50.888;4.746;2022-09-09T09:52:55;172.82;;;160.77;;
21569;SDS011;57598;50.888;4.746;2022-09-09T09:55:23;145.95;;;135.20;;
21569;SDS011;57598;50.888;4.746;2022-09-09T09:57:52;155.20;;;144.48;;
21569;SDS011;57598;50.888;4.746;2022-09-09T10:00:20;187.60;;;173.90;;
21569;SDS011;57598;50.888;4.746;2022-09-09T10:02:49;196.38;;;182.13;;
21569;SDS011;57598;50.888;4.746;2022-09-09T10:05:18;209.93;;;194.77;;
21569;SDS011;57598;50.888;4.746;2022-09-09T10:07:57;172.55;;;160.05;;
21569;SDS011;57598;50.888;4.746;2022-09-09T10:10:40;164.73;;;152.45;;
21569;SDS011;57598;50.888;4.746;2022-09-09T10:13:15;173.85;;;161.07;;
21569;SDS011;57598;50.888;4.746;2022-09-09T10:15:52;183.95;;;170.68;;
21569;SDS011;57598;50.888;4.746;2022-09-09T10:18:36;166.00;;;153.60;;
21569;SDS011;57598;50.888;4.746;2022-09-09T10:21:15;201.13;;;186.63;;
21569;SDS011;57598;50.888;4.746;2022-09-09T10:23:55;376.58;;;353.23;;
21569;SDS011;57598;50.888;4.746;2022-09-09T10:26:36;369.63;;;347.15;;
21569;SDS011;57598;50.888;4.746;2022-09-09T10:29:12;390.10;;;365.95;;
21569;SDS011;57598;50.888;4.746;2022-09-09T10:31:53;338.33;;;317.52;;
21569;SDS011;57598;50.888;4.746;2022-09-09T10:34:33;266.05;;;249.75;;
21569;SDS011;57598;50.888;4.746;2022-09-09T10:37:13;178.23;;;166.82;;
21569;SDS011;57598;50.888;4.746;2022-09-09T10:39:49;132.85;;;123.68;;
21569;SDS011;57598;50.888;4.746;2022-09-09T10:42:23;121.53;;;112.57;;
21569;SDS011;57598;50.888;4.746;2022-09-09T10:44:59;96.93;;;89.60;;
21569;SDS011;57598;50.888;4.746;2022-09-09T10:50:29;78.05;;;71.55;;
21569;SDS011;57598;50.888;4.746;2022-09-09T10:53:11;77.20;;;70.80;;
21569;SDS011;57598;50.888;4.746;2022-09-09T10:55:50;74.85;;;68.43;;
21569;SDS011;57598;50.888;4.746;2022-09-09T10:58:20;77.32;;;70.63;;
21569;SDS011;57598;50.888;4.746;2022-09-09T11:00:52;74.53;;;68.22;;
21569;SDS011;57598;50.888;4.746;2022-09-09T11:03:23;78.90;;;72.38;;
21569;SDS011;57598;50.888;4.746;2022-09-09T11:05:55;78.38;;;71.78;;
21569;SDS011;57598;50.888;4.746;2022-09-09T11:08:26;77.95;;;71.55;;
21569;SDS011;57598;50.888;4.746;2022-09-09T11:10:58;79.03;;;72.25;;
21569;SDS011;57598;50.888;4.746;2022-09-09T11:13:30;79.07;;;72.68;;
21569;SDS011;57598;50.888;4.746;2022-09-09T11:16:04;78.30;;;71.93;;
21569;SDS011;57598;50.888;4.746;2022-09-09T11:18:43;75.97;;;69.88;;
21569;SDS011;57598;50.888;4.746;2022-09-09T11:21:14;71.82;;;65.95;;
21569;SDS011;57598;50.888;4.746;2022-09-09T11:23:48;58.35;;;53.63;;
21569;SDS011;57598;50.888;4.746;2022-09-09T11:26:24;52.60;;;47.90;;
21569;SDS011;57598;50.888;4.746;2022-09-09T11:29:00;53.80;;;49.00;;
21569;SDS011;57598;50.888;4.746;2022-09-09T11:31:42;54.30;;;49.80;;
21569;SDS011;57598;50.888;4.746;2022-09-09T11:34:17;52.88;;;48.58;;
21569;SDS011;57598;50.888;4.746;2022-09-09T11:36:56;53.50;;;48.72;;
21569;SDS011;57598;50.888;4.746;2022-09-09T11:42:32;51.00;;;46.90;;
21569;SDS011;57598;50.888;4.746;2022-09-09T11:45:08;49.05;;;45.25;;
21569;SDS011;57598;50.888;4.746;2022-09-09T11:47:38;49.60;;;46.00;;
21569;SDS011;57598;50.888;4.746;2022-09-09T11:50:09;46.55;;;43.35;;
21569;SDS011;57598;50.888;4.746;2022-09-09T11:52:39;47.72;;;43.92;;
21569;SDS011;57598;50.888;4.746;2022-09-09T11:55:08;43.53;;;40.83;;
21569;SDS011;57598;50.888;4.746;2022-09-09T11:57:38;43.20;;;39.63;;
21569;SDS011;57598;50.888;4.746;2022-09-09T12:00:06;40.67;;;37.28;;
21569;SDS011;57598;50.888;4.746;2022-09-09T12:02:49;42.20;;;39.10;;
21569;SDS011;57598;50.888;4.746;2022-09-09T12:05:16;39.00;;;36.60;;
21569;SDS011;57598;50.888;4.746;2022-09-09T12:07:46;42.08;;;39.38;;
21569;SDS011;57598;50.888;4.746;2022-09-09T12:10:20;44.03;;;41.08;;
21569;SDS011;57598;50.888;4.746;2022-09-09T12:12:52;45.50;;;42.33;;
21569;SDS011;57598;50.888;4.746;2022-09-09T12:15:20;40.25;;;37.55;;
21569;SDS011;57598;50.888;4.746;2022-09-09T12:20:19;37.65;;;35.35;;
21569;SDS011;57598;50.888;4.746;2022-09-09T12:22:55;37.75;;;34.80;;
21569;SDS011;57598;50.888;4.746;2022-09-09T12:25:45;36.25;;;34.05;;
21569;SDS011;57598;50.888;4.746;2022-09-09T12:28:21;37.30;;;35.10;;
21569;SDS011;57598;50.888;4.746;2022-09-09T12:30:54;37.67;;;35.17;;
21569;SDS011;57598;50.888;4.746;2022-09-09T12:33:32;38.22;;;35.92;;
21569;SDS011;57598;50.888;4.746;2022-09-09T12:36:00;39.60;;;36.65;;
21569;SDS011;57598;50.888;4.746;2022-09-09T12:38:32;36.30;;;34.10;;
21569;SDS011;57598;50.888;4.746;2022-09-09T12:41:01;37.78;;;35.35;;
21569;SDS011;57598;50.888;4.746;2022-09-09T12:43:29;40.03;;;37.63;;
21569;SDS011;57598;50.888;4.746;2022-09-09T12:45:57;35.58;;;33.47;;
21569;SDS011;57598;50.888;4.746;2022-09-09T12:48:32;36.13;;;33.77;;
21569;SDS011;57598;50.888;4.746;2022-09-09T12:51:02;33.05;;;31.02;;
21569;SDS011;57598;50.888;4.746;2022-09-09T12:53:32;33.28;;;31.27;;
21569;SDS011;57598;50.888;4.746;2022-09-09T12:56:03;32.33;;;30.43;;
21569;SDS011;57598;50.888;4.746;2022-09-09T12:58:35;32.38;;;30.27;;
21569;SDS011;57598;50.888;4.746;2022-09-09T13:01:05;31.45;;;29.63;;
21569;SDS011;57598;50.888;4.746;2022-09-09T13:03:43;33.50;;;31.50;;
21569;SDS011;57598;50.888;4.746;2022-09-09T13:06:13;32.17;;;30.08;;
21569;SDS011;57598;50.888;4.746;2022-09-09T13:08:47;32.92;;;30.83;;
21569;SDS011;57598;50.888;4.746;2022-09-09T13:11:15;30.70;;;28.80;;
21569;SDS011;57598;50.888;4.746;2022-09-09T13:13:50;28.00;;;26.40;;
21569;SDS011;57598;50.888;4.746;2022-09-09T13:16:20;28.77;;;26.92;;
21569;SDS011;57598;50.888;4.746;2022-09-09T13:18:49;27.63;;;25.92;;
21569;SDS011;57598;50.888;4.746;2022-09-09T13:21:17;28.42;;;26.13;;
21569;SDS011;57598;50.888;4.746;2022-09-09T13:23:48;27.35;;;25.70;;
21569;SDS011;57598;50.888;4.746;2022-09-09T13:26:21;26.88;;;25.27;;
21569;SDS011;57598;50.888;4.746;2022-09-09T13:28:51;26.02;;;24.42;;
21569;SDS011;57598;50.888;4.746;2022-09-09T13:31:20;25.92;;;24.27;;
21569;SDS011;57598;50.888;4.746;2022-09-09T13:33:48;24.75;;;23.35;;
21569;SDS011;57598;50.888;4.746;2022-09-09T13:36:16;24.77;;;23.38;;
21569;SDS011;57598;50.888;4.746;2022-09-09T13:38:56;24.40;;;23.00;;
21569;SDS011;57598;50.888;4.746;2022-09-09T13:41:25;25.85;;;24.33;;
21569;SDS011;57598;50.888;4.746;2022-09-09T13:43:57;24.95;;;23.45;;
21569;SDS011;57598;50.888;4.746;2022-09-09T13:46:31;25.70;;;24.00;;
21569;SDS011;57598;50.888;4.746;2022-09-09T13:51:33;23.95;;;22.55;;
21569;SDS011;57598;50.888;4.746;2022-09-09T13:54:02;24.27;;;22.88;;
21569;SDS011;57598;50.888;4.746;2022-09-09T13:56:31;24.48;;;23.08;;
21569;SDS011;57598;50.888;4.746;2022-09-09T13:58:59;23.88;;;22.48;;
21569;SDS011;57598;50.888;4.746;2022-09-09T14:01:26;23.50;;;22.15;;
21569;SDS011;57598;50.888;4.746;2022-09-09T14:03:53;25.15;;;23.50;;
21569;SDS011;57598;50.888;4.746;2022-09-09T14:06:21;24.60;;;23.00;;
21569;SDS011;57598;50.888;4.746;2022-09-09T14:08:48;24.35;;;22.73;;
21569;SDS011;57598;50.888;4.746;2022-09-09T14:11:17;24.60;;;23.17;;
21569;SDS011;57598;50.888;4.746;2022-09-09T14:13:44;24.70;;;23.13;;
21569;SDS011;57598;50.888;4.746;2022-09-09T14:16:13;24.58;;;23.17;;
21569;SDS011;57598;50.888;4.746;2022-09-09T14:18:40;23.65;;;22.27;;
21569;SDS011;57598;50.888;4.746;2022-09-09T14:21:07;23.83;;;22.50;;
21569;SDS011;57598;50.888;4.746;2022-09-09T14:23:34;22.38;;;21.08;;
21569;SDS011;57598;50.888;4.746;2022-09-09T14:26:03;22.52;;;21.20;;
21569;SDS011;57598;50.888;4.746;2022-09-09T14:28:30;21.77;;;20.58;;
21569;SDS011;57598;50.888;4.746;2022-09-09T14:30:58;21.70;;;20.50;;
21569;SDS011;57598;50.888;4.746;2022-09-09T14:33:27;23.05;;;21.75;;
21569;SDS011;57598;50.888;4.746;2022-09-09T14:35:55;23.83;;;22.30;;
21569;SDS011;57598;50.888;4.746;2022-09-09T14:38:23;22.65;;;21.35;;
21569;SDS011;57598;50.888;4.746;2022-09-09T14:40:50;23.25;;;21.95;;
21569;SDS011;57598;50.888;4.746;2022-09-09T14:43:17;23.73;;;22.33;;
21569;SDS011;57598;50.888;4.746;2022-09-09T14:45:45;23.65;;;21.67;;
21569;SDS011;57598;50.888;4.746;2022-09-09T14:48:13;23.35;;;22.05;;
21569;SDS011;57598;50.888;4.746;2022-09-09T14:50:41;23.20;;;21.90;;
21569;SDS011;57598;50.888;4.746;2022-09-09T14:53:08;24.25;;;22.63;;
21569;SDS011;57598;50.888;4.746;2022-09-09T14:55:35;24.85;;;22.80;;
21569;SDS011;57598;50.888;4.746;2022-09-09T14:58:03;23.33;;;21.92;;
21569;SDS011;57598;50.888;4.746;2022-09-09T15:00:31;23.40;;;22.08;;